createdAt,value
2022-11-25T00:03:55.029Z,100598.03
2022-11-25T00:08:57.985Z,100595.66
2022-11-25T00:13:59.442Z,100586.56
2022-11-25T00:19:00.899Z,100588.22
2022-11-25T00:24:06.437Z,100595.44
2022-11-25T00:29:08.269Z,100572.91
2022-11-25T00:34:13.517Z,100575.56
2022-11-25T00:39:16.371Z,100588.19
2022-11-25T00:44:37.704Z,100589.25
2022-11-25T00:49:40.978Z,100575.16
2022-11-25T00:54:42.684Z,100575.53
2022-11-25T00:59:44.144Z,100582.22
2022-11-25T01:04:46.054Z,100562.91
2022-11-25T01:09:47.620Z,100566.91
2022-11-25T01:14:49.068Z,100559.69
2022-11-25T01:19:50.540Z,100559.81
2022-11-25T01:24:52.003Z,100555.00
2022-11-25T01:29:53.458Z,100558.16
2022-11-25T01:34:54.936Z,100558.72
2022-11-25T01:39:56.403Z,100551.34
2022-11-25T01:45:24.614Z,100559.66
2022-11-25T01:50:29.397Z,100558.06
2022-11-25T01:55:30.984Z,100538.19
2022-11-25T02:00:32.530Z,100543.31
2022-11-25T02:05:52.139Z,100545.66
2022-11-25T02:10:54.293Z,100538.66
2022-11-25T02:15:55.742Z,100540.66
2022-11-25T02:20:57.194Z,100557.50
2022-11-25T02:25:58.686Z,100554.09
2022-11-25T02:31:00.147Z,100540.13
2022-11-25T02:36:03.106Z,100552.13
2022-11-25T02:41:25.125Z,100540.00
2022-11-25T02:46:26.703Z,100539.53
2022-11-25T02:51:29.514Z,100527.06
2022-11-25T02:56:31.933Z,100535.44
2022-11-25T03:01:33.344Z,100539.75
2022-11-25T03:06:34.906Z,100528.78
2022-11-25T03:11:54.745Z,100537.34
2022-11-25T03:16:56.301Z,100524.22
2022-11-25T03:21:57.829Z,100548.13
2022-11-25T03:26:59.394Z,100536.97
2022-11-25T03:32:04.195Z,100531.50
2022-11-25T03:37:08.417Z,100541.13
2022-11-25T03:42:09.919Z,100532.59
2022-11-25T03:47:11.387Z,100549.28
2022-11-25T03:52:12.845Z,100542.25
2022-11-25T03:57:14.335Z,100537.00
2022-11-25T04:02:15.840Z,100538.06
2022-11-25T04:07:17.490Z,100538.19
2022-11-25T04:12:37.328Z,100533.09
2022-11-25T04:17:38.790Z,100530.19
2022-11-25T04:22:40.391Z,100535.34
2022-11-25T04:27:41.853Z,100538.88
2022-11-25T04:32:43.309Z,100550.84
2022-11-25T04:37:44.755Z,100546.22
2022-11-25T04:42:46.212Z,100541.22
2022-11-25T04:47:47.672Z,100543.03
2022-11-25T04:52:49.118Z,100556.06
2022-11-25T04:57:50.568Z,100567.16
2022-11-25T05:02:52.074Z,100559.69
2022-11-25T05:07:53.603Z,100567.63
2022-11-25T05:12:55.096Z,100563.91
2022-11-25T05:17:56.538Z,100567.34
2022-11-25T05:22:58.016Z,100574.59
2022-11-25T05:28:00.293Z,100560.13
2022-11-25T05:33:01.748Z,100568.66
2022-11-25T05:38:04.240Z,100567.28
2022-11-25T05:43:05.690Z,100556.34
2022-11-25T05:48:08.300Z,100552.97
2022-11-25T05:53:09.797Z,100571.16
2022-11-25T05:58:11.246Z,100556.84
2022-11-25T06:03:12.797Z,100558.66
2022-11-25T06:08:14.364Z,100577.69
2022-11-25T06:13:15.829Z,100579.31
2022-11-25T06:18:17.383Z,100579.13
2022-11-25T06:23:18.867Z,100581.47
2022-11-25T06:28:20.323Z,100593.91
2022-11-25T06:33:21.788Z,100581.69
2022-11-25T06:38:23.255Z,100582.97
2022-11-25T06:43:24.711Z,100596.94
2022-11-25T06:48:26.178Z,100610.09
2022-11-25T06:53:27.715Z,100616.22
2022-11-25T06:58:35.920Z,100616.28
2022-11-25T07:03:37.766Z,100626.75
2022-11-25T07:08:39.314Z,100629.16
2022-11-25T07:13:40.774Z,100639.44
2022-11-25T07:18:42.254Z,100645.75
2022-11-25T07:23:44.160Z,100655.06
2022-11-25T07:28:45.704Z,100658.47
2022-11-25T07:33:47.235Z,100666.19
2022-11-25T07:38:48.810Z,100667.94
2022-11-25T07:43:52.489Z,100668.81
2022-11-25T07:48:54.983Z,100669.72
2022-11-25T07:53:56.846Z,100680.47
2022-11-25T07:58:58.304Z,100672.47
2022-11-25T08:03:59.772Z,100695.94
2022-11-25T08:09:01.220Z,100684.69
2022-11-25T08:14:02.841Z,100685.28
2022-11-25T08:19:07.093Z,100688.38
2022-11-25T08:24:10.123Z,100698.78
2022-11-25T08:29:13.773Z,100701.63
2022-11-25T08:34:33.346Z,100709.00
2022-11-25T08:44:56.301Z,100712.78
2022-11-25T08:49:57.907Z,100719.00
2022-11-25T08:54:59.359Z,100714.16
2022-11-25T09:00:00.824Z,100724.91
2022-11-25T09:05:02.298Z,100717.81
2022-11-25T09:10:04.085Z,100714.84
2022-11-25T09:15:05.976Z,100717.16
2022-11-25T09:20:07.742Z,100723.03
2022-11-25T09:25:09.309Z,100738.53
2022-11-25T09:30:11.155Z,100744.28
2022-11-25T09:35:12.611Z,100749.69
2022-11-25T09:40:47.859Z,100748.63
2022-11-25T09:46:23.831Z,100751.63
2022-11-25T09:51:32.252Z,100766.59
2022-11-25T09:56:42.922Z,100774.69
2022-11-25T10:01:50.122Z,100769.41
2022-11-25T10:06:57.051Z,100780.84
2022-11-25T10:12:03.309Z,100784.50
2022-11-25T10:17:10.409Z,100792.50
2022-11-25T10:22:21.028Z,100797.63
2022-11-25T10:27:46.604Z,100795.81
2022-11-25T10:32:59.321Z,100804.44
2022-11-25T10:38:03.816Z,100811.06
2022-11-25T10:43:14.272Z,100810.06
2022-11-25T10:48:44.035Z,100811.81
2022-11-25T10:54:11.384Z,100816.88
2022-11-25T10:59:22.200Z,100816.44
2022-11-25T11:04:23.652Z,100827.56
2022-11-25T11:09:38.855Z,100825.53
2022-11-25T11:14:40.355Z,100830.00
2022-11-25T11:19:41.813Z,100824.16
2022-11-25T11:24:43.278Z,100820.69
2022-11-25T11:29:44.744Z,100840.75
2022-11-25T11:35:06.774Z,100838.78
2022-11-25T11:40:30.835Z,100847.53
2022-11-25T11:45:53.964Z,100847.03
2022-11-25T11:51:13.751Z,100844.22
2022-11-25T11:56:36.692Z,100861.53
2022-11-25T12:02:00.464Z,100865.09
2022-11-25T12:07:15.919Z,100865.53
2022-11-25T12:12:19.150Z,100864.06
2022-11-25T12:17:27.496Z,100861.63
2022-11-25T12:22:34.753Z,100862.38
2022-11-25T12:27:47.783Z,100887.47
2022-11-25T12:33:06.561Z,100887.59
2022-11-25T12:38:29.855Z,100868.56
2022-11-25T12:43:42.940Z,100878.69
2022-11-25T12:48:44.460Z,100888.28
2022-11-25T12:54:19.734Z,100889.41
2022-11-25T12:59:33.414Z,100903.09
2022-11-25T13:10:54.992Z,100906.91
2022-11-25T13:15:57.292Z,100910.84
2022-11-25T13:21:08.899Z,100924.94
2022-11-25T13:26:28.477Z,100927.22
2022-11-25T13:32:01.666Z,100929.00
2022-11-25T13:37:33.473Z,100935.38
2022-11-25T13:42:43.340Z,100932.78
2022-11-25T13:47:48.391Z,100946.03
2022-11-25T13:52:59.445Z,100957.00
2022-11-25T13:58:02.233Z,100969.53
2022-11-25T14:03:18.954Z,100975.47
2022-11-25T14:08:26.343Z,100980.94
2022-11-25T14:14:01.049Z,100987.31
2022-11-25T14:19:51.678Z,100987.06
2022-11-25T14:24:55.467Z,100975.53
2022-11-25T14:30:04.983Z,100984.09
2022-11-25T14:35:45.768Z,100999.78
2022-11-25T14:40:54.633Z,101013.94
2022-11-25T14:46:12.934Z,101012.53
2022-11-25T14:51:14.520Z,101026.72
2022-11-25T14:56:23.428Z,101029.56
2022-11-25T15:01:32.529Z,101032.22
2022-11-25T15:06:38.809Z,101049.94
2022-11-25T15:11:40.280Z,101047.41
2022-11-25T15:16:43.331Z,101054.28
2022-11-25T15:22:14.900Z,101063.88
2022-11-25T15:27:25.888Z,101063.88
2022-11-25T15:32:31.218Z,101075.50
2022-11-25T15:37:32.789Z,101077.47
2022-11-25T15:42:34.275Z,101085.41
2022-11-25T15:47:35.736Z,101078.53
2022-11-25T15:52:38.027Z,101098.88
2022-11-25T15:57:40.130Z,101110.88
2022-11-25T16:02:41.521Z,101106.84
2022-11-25T16:07:52.344Z,101128.53
2022-11-25T16:13:20.889Z,101131.56
2022-11-25T16:18:39.771Z,101134.59
2022-11-25T16:23:44.618Z,101131.63
2022-11-25T16:28:56.433Z,101143.47
2022-11-25T16:34:11.748Z,101154.50
2022-11-25T16:39:13.234Z,101160.75
2022-11-25T16:44:19.076Z,101174.13
2022-11-25T16:49:21.126Z,101177.00
2022-11-25T16:54:22.846Z,101186.59
2022-11-25T16:59:29.948Z,101188.91
2022-11-25T17:04:31.404Z,101190.53
2022-11-25T17:09:32.850Z,101199.56
2022-11-25T17:14:34.708Z,101212.81
2022-11-25T17:19:36.540Z,101224.06
2022-11-25T17:24:38.398Z,101239.13
2022-11-25T17:29:41.558Z,101242.47
2022-11-25T17:34:43.364Z,101258.50
2022-11-25T17:39:44.833Z,101280.06
2022-11-25T17:44:51.274Z,101282.19
2022-11-25T17:49:54.531Z,101286.69
2022-11-25T17:54:56.117Z,101295.38
2022-11-25T17:59:57.632Z,101306.81
2022-11-25T18:04:59.087Z,101321.91
2022-11-25T18:10:00.548Z,101319.94
2022-11-25T18:15:07.887Z,101324.78
2022-11-25T18:20:16.820Z,101325.88
2022-11-25T18:25:26.079Z,101347.66
2022-11-25T18:30:28.840Z,101347.34
2022-11-25T18:35:36.121Z,101365.78
2022-11-25T18:40:40.263Z,101367.28
2022-11-25T18:45:41.798Z,101375.06
2022-11-25T18:50:43.571Z,101392.19
2022-11-25T18:55:45.028Z,101391.31
2022-11-25T19:00:50.157Z,101394.84
2022-11-25T19:05:54.081Z,101408.28
2022-11-25T19:10:55.661Z,101414.47
2022-11-25T19:16:00.168Z,101424.06
2022-11-25T19:21:02.115Z,101439.66
2022-11-25T19:26:07.604Z,101437.34
2022-11-25T19:31:09.135Z,101439.03
2022-11-25T19:36:16.982Z,101449.03
2022-11-25T19:41:18.528Z,101454.81
2022-11-25T19:46:40.949Z,101464.97
2022-11-25T19:51:51.840Z,101470.06
2022-11-25T19:56:53.639Z,101489.94
2022-11-25T20:01:55.482Z,101491.66
2022-11-25T20:06:57.049Z,101520.19
2022-11-25T20:12:08.062Z,101517.09
2022-11-25T20:17:12.908Z,101512.19
2022-11-25T20:22:16.844Z,101526.00
2022-11-25T20:27:18.299Z,101541.78
2022-11-25T20:32:22.556Z,101544.66
2022-11-25T20:37:24.990Z,101548.31
2022-11-25T20:42:26.465Z,101553.47
2022-11-25T20:47:28.247Z,101548.06
2022-11-25T20:52:33.155Z,101559.22
2022-11-25T20:57:36.398Z,101559.00
2022-11-25T21:02:37.927Z,101559.31
2022-11-25T21:07:39.599Z,101561.88
2022-11-25T21:12:41.142Z,101564.22
2022-11-25T21:17:42.615Z,101581.78
2022-11-25T21:22:46.162Z,101584.28
2022-11-25T21:27:47.617Z,101586.06
2022-11-25T21:32:50.539Z,101590.56
2022-11-25T21:37:51.994Z,101597.09
2022-11-25T21:42:53.446Z,101603.59
2022-11-25T21:47:54.921Z,101604.00
2022-11-25T21:52:57.124Z,101607.69
2022-11-25T21:57:58.583Z,101606.06
2022-11-25T22:03:00.089Z,101628.50
2022-11-25T22:08:01.695Z,101624.94
2022-11-25T22:13:04.014Z,101634.47
2022-11-25T22:18:05.484Z,101630.94
2022-11-25T22:23:15.633Z,101644.34
2022-11-25T22:28:21.569Z,101658.94
2022-11-25T22:33:28.981Z,101664.75
2022-11-25T22:38:30.593Z,101687.25
2022-11-25T22:43:34.564Z,101678.94
2022-11-25T22:48:36.648Z,101686.56
2022-11-25T22:53:38.099Z,101689.25
2022-11-25T22:58:39.742Z,101695.91
2022-11-25T23:03:41.231Z,101698.06
2022-11-25T23:08:42.693Z,101698.41
2022-11-25T23:13:44.188Z,101704.03
2022-11-25T23:18:46.018Z,101718.47
2022-11-25T23:23:47.530Z,101714.03
2022-11-25T23:28:49.128Z,101721.50
2022-11-25T23:33:50.594Z,101737.81
2022-11-25T23:38:56.401Z,101717.47
2022-11-25T23:44:16.983Z,101734.50
2022-11-25T23:49:23.968Z,101739.78
2022-11-25T23:54:40.568Z,101745.75
2022-11-25T23:59:42.518Z,101757.50
